Time;durP1;ratioP1;P1;durP2;ratioP2;P2;SDS_P1;SDS_P2;PMS_P1;PMS_P2;Temp;Humidity;BMP_temperature;BMP_pressure;BME280_temperature;BME280_humidity;BME280_pressure;Samples;Min_cycle;Max_cycle;Signal;HPM_P1;HPM_P2
2021/09/23 00:01:55;;;;;;;;;;;;;;;-142.75;91.79;77560.56;5030217;28;19939;-76
2021/09/23 00:04:34;;;;;;;;;;;;;;;-142.75;91.61;77560.56;5011332;28;20317;-75
2021/09/23 00:07:00;;;;;;;;;;;;;;;-142.75;91.68;77560.56;5043045;28;19942;-74
2021/09/23 00:09:25;;;;;;;;;;;;;;;-142.75;93.07;77568.44;5047593;28;20429;-75
2021/09/23 00:11:50;;;;;;;;;;;;;;;-142.75;93.25;77574.34;5049094;28;19967;-75
2021/09/23 00:14:16;;;;;;;;;;;;;;;-142.75;93.23;77568.44;5048596;28;19919;-76
2021/09/23 00:16:41;;;;;;;;;;;;;;;-142.75;92.88;77566.47;5048774;28;20393;-76
2021/09/23 00:19:08;;;;;;;;;;;;;;;-142.75;93.37;77560.56;5048809;28;19928;-76
2021/09/23 00:21:33;;;;;;;;;;;;;;;-142.75;93.37;77554.66;5030833;28;19952;-75
2021/09/23 00:23:58;;;;;;;;;;;;;;;-142.75;93.52;77558.59;5048430;28;19956;-75
2021/09/23 00:26:23;;;;;;;;;;;;;;;-142.75;94.19;77566.47;5038126;28;20290;-76
2021/09/23 00:28:49;;;;;;;;;;;;;;;-142.75;95.25;77564.50;5028872;28;19955;-76
2021/09/23 00:31:14;;;;;;;;;;;;;;;-142.75;96.28;77564.50;5027602;28;19924;-76
2021/09/23 00:33:39;;;;;;;;;;;;;;;-142.75;96.69;77562.53;5028261;28;19913;-75
2021/09/23 00:36:04;;;;;;;;;;;;;;;-142.75;96.65;77570.41;5048142;28;20286;-76
2021/09/23 00:38:30;;;;;;;;;;;;;;;-142.75;96.49;77558.59;5048661;28;19912;-75
2021/09/23 00:40:55;;;;;;;;;;;;;;;-142.75;96.44;77540.88;5048544;28;19913;-75
2021/09/23 00:43:20;;;;;;;;;;;;;;;-142.75;96.13;77548.75;5048619;28;19916;-76
2021/09/23 00:45:45;;;;;;;;;;;;;;;-142.75;95.83;77540.88;5048117;28;19927;-76
2021/09/23 00:48:10;;;;;;;;;;;;;;;-142.75;96.17;77540.88;5052012;28;19924;-75
2021/09/23 00:50:36;;;;;;;;;;;;;;;-142.75;96.47;77538.91;5052214;28;20318;-75
2021/09/23 00:53:01;;;;;;;;;;;;;;;-142.75;96.31;77550.72;5034385;28;20356;-75
2021/09/23 00:55:26;;;;;;;;;;;;;;;-142.75;95.92;77548.75;5051860;28;20282;-75
2021/09/23 00:57:52;;;;;;;;;;;;;;;-142.75;95.90;77552.69;5052192;28;19913;-75
2021/09/23 01:00:17;;;;;;;;;;;;;;;-142.75;95.25;77558.59;5052027;28;20360;-76
2021/09/23 01:02:43;;;;;;;;;;;;;;;-142.75;95.24;77564.50;5052881;28;19919;-75
2021/09/23 01:05:09;;;;;;;;;;;;;;;-142.75;94.90;77578.28;5051546;28;19917;-75
2021/09/23 01:07:34;;;;;;;;;;;;;;;-142.75;94.56;77582.22;5051831;28;20317;-75
2021/09/23 01:10:02;;;;;;;;;;;;;;;-142.75;94.75;77586.16;5051995;28;19913;-75
2021/09/23 01:12:28;;;;;;;;;;;;;;;-142.75;95.32;77597.97;5051777;28;19921;-75
2021/09/23 01:14:54;;;;;;;;;;;;;;;-142.75;95.94;77594.03;5051545;28;19916;-75
2021/09/23 01:17:19;;;;;;;;;;;;;;;-142.75;96.32;77580.25;5051775;28;19974;-75
2021/09/23 01:19:45;;;;;;;;;;;;;;;-142.75;96.10;77578.28;5051764;28;20580;-75
2021/09/23 01:22:12;;;;;;;;;;;;;;;-142.75;95.81;77576.31;5031565;28;21887;-75
2021/09/23 01:24:38;;;;;;;;;;;;;;;-142.75;95.50;77578.28;5013876;28;19956;-73
2021/09/23 01:27:03;;;;;;;;;;;;;;;-142.75;95.25;77582.22;5031775;28;19924;-76
2021/09/23 01:29:29;;;;;;;;;;;;;;;-142.75;95.73;77582.22;5042500;28;19912;-75
2021/09/23 01:31:55;;;;;;;;;;;;;;;-142.75;95.97;77586.16;5034506;28;20366;-75
2021/09/23 01:34:20;;;;;;;;;;;;;;;-142.75;96.40;77584.19;5049247;28;19920;-74
2021/09/23 01:36:45;;;;;;;;;;;;;;;-142.75;96.29;77588.13;5031342;28;19920;-75
2021/09/23 01:39:16;;;;;;;;;;;;;;;-142.75;96.52;77590.09;5031626;28;19913;-76
2021/09/23 01:41:41;;;;;;;;;;;;;;;-142.75;97.04;77588.13;5031456;28;19913;-74
2021/09/23 01:44:06;;;;;;;;;;;;;;;-142.75;97.54;77586.16;5031199;28;19913;-75
2021/09/23 01:46:31;;;;;;;;;;;;;;;-142.75;97.50;77586.16;5043949;28;19916;-75
2021/09/23 01:48:56;;;;;;;;;;;;;;;-142.75;97.63;77580.25;5031273;28;19917;-76
2021/09/23 01:51:21;;;;;;;;;;;;;;;-142.75;97.84;77582.22;5013644;28;19938;-76
2021/09/23 01:53:47;;;;;;;;;;;;;;;-142.75;98.46;77594.03;5013252;28;20300;-73
2021/09/23 01:56:12;;;;;;;;;;;;;;;-142.75;99.09;77594.03;5031308;28;19959;-75
2021/09/23 01:58:37;;;;;;;;;;;;;;;-142.75;99.08;77590.09;5013107;28;19920;-75
2021/09/23 02:01:02;;;;;;;;;;;;;;;-142.75;99.93;77588.13;5031444;28;20386;-76
2021/09/23 02:03:28;;;;;;;;;;;;;;;-142.75;100.00;77578.28;5031735;28;19913;-75
2021/09/23 02:05:53;;;;;;;;;;;;;;;-142.75;100.00;77582.22;5030665;28;19913;-76
2021/09/23 02:08:18;;;;;;;;;;;;;;;-142.75;100.00;77568.44;5013157;28;19963;-75
2021/09/23 02:10:43;;;;;;;;;;;;;;;-142.75;100.00;77564.50;5030779;28;19917;-75
2021/09/23 02:13:08;;;;;;;;;;;;;;;-142.75;100.00;77566.47;5031000;28;20046;-74
2021/09/23 02:15:34;;;;;;;;;;;;;;;-142.75;100.00;77556.63;5030558;28;20409;-75
2021/09/23 02:17:59;;;;;;;;;;;;;;;-142.75;100.00;77544.81;5030762;28;19912;-76
2021/09/23 02:20:24;;;;;;;;;;;;;;;-142.75;100.00;77550.72;5030779;28;19944;-76
2021/09/23 02:22:49;;;;;;;;;;;;;;;-142.75;100.00;77546.78;5043105;28;19913;-76
2021/09/23 02:25:14;;;;;;;;;;;;;;;-142.75;100.00;77519.22;5050093;28;19982;-75
2021/09/23 02:27:40;;;;;;;;;;;;;;;-142.75;100.00;77503.47;5032374;28;19917;-75
2021/09/23 02:30:06;;;;;;;;;;;;;;;-142.75;100.00;77495.59;5050422;28;19919;-75
2021/09/23 02:32:31;;;;;;;;;;;;;;;-142.75;100.00;77499.53;5051358;28;19913;-75
2021/09/23 02:37:28;;;;;;;;;;;;;;;-142.75;100.00;77497.56;5053102;22;19921;-77
2021/09/23 02:39:53;;;;;;;;;;;;;;;-142.75;100.00;77497.56;5048394;28;20382;-77
2021/09/23 02:42:19;;;;;;;;;;;;;;;-142.75;100.00;77497.56;5050211;28;19958;-77
2021/09/23 02:44:44;;;;;;;;;;;;;;;-142.75;100.00;77487.72;5027988;28;20270;-76
2021/09/23 02:47:09;;;;;;;;;;;;;;;-142.75;100.00;77491.66;5006756;28;19917;-76
2021/09/23 02:49:34;;;;;;;;;;;;;;;-142.75;100.00;77493.63;5003603;28;19917;-77
2021/09/23 02:52:00;;;;;;;;;;;;;;;-142.75;100.00;77491.66;5011442;28;19919;-77
2021/09/23 02:54:25;;;;;;;;;;;;;;;-142.75;100.00;77485.75;5029780;28;19913;-78
2021/09/23 02:56:50;;;;;;;;;;;;;;;-142.75;100.00;77489.69;5012204;28;20011;-77
2021/09/23 02:59:16;;;;;;;;;;;;;;;-142.75;100.00;77477.88;4998555;28;19921;-77
2021/09/23 03:01:41;;;;;;;;;;;;;;;-142.75;100.00;77473.94;5014770;28;20008;-77
2021/09/23 03:04:06;;;;;;;;;;;;;;;-142.75;100.00;77479.84;5007829;28;19917;-76
2021/09/23 03:06:31;;;;;;;;;;;;;;;-142.75;100.00;77479.84;4997925;28;19913;-77
2021/09/23 03:08:57;;;;;;;;;;;;;;;-142.75;100.00;77471.97;5023618;28;19920;-76
2021/09/23 03:11:22;;;;;;;;;;;;;;;-142.75;100.00;77481.81;5014233;28;19921;-76
2021/09/23 03:13:47;;;;;;;;;;;;;;;-142.75;100.00;77481.81;5020978;28;19921;-75
2021/09/23 03:16:12;;;;;;;;;;;;;;;-142.75;100.00;77495.59;5015374;28;20338;-75
2021/09/23 03:18:37;;;;;;;;;;;;;;;-142.75;100.00;77503.47;5028426;28;19978;-76
2021/09/23 03:21:03;;;;;;;;;;;;;;;-142.75;100.00;77511.34;5019863;28;19967;-78
2021/09/23 03:23:29;;;;;;;;;;;;;;;-142.75;100.00;77515.28;5024066;28;20000;-77
2021/09/23 03:25:54;;;;;;;;;;;;;;;-142.75;100.00;77501.50;5024990;28;19917;-77
2021/09/23 03:28:19;;;;;;;;;;;;;;;-142.75;100.00;77485.75;5029180;28;19931;-76
2021/09/23 03:30:44;;;;;;;;;;;;;;;-142.75;100.00;77485.75;5019479;28;19913;-77
2021/09/23 03:33:09;;;;;;;;;;;;;;;-142.75;100.00;77487.72;5011536;28;19913;-77
2021/09/23 03:35:38;;;;;;;;;;;;;;;-142.75;100.00;77487.72;5013089;28;19920;-77
2021/09/23 03:38:03;;;;;;;;;;;;;;;-142.75;100.00;77495.59;5019275;28;20991;-78
2021/09/23 03:40:29;;;;;;;;;;;;;;;-142.75;100.00;77479.84;5018274;28;20011;-77
2021/09/23 03:42:54;;;;;;;;;;;;;;;-142.75;100.00;77487.72;5020656;28;19913;-76
2021/09/23 03:45:22;;;;;;;;;;;;;;;-142.75;100.00;77475.91;5017737;28;19928;-77
2021/09/23 03:47:47;;;;;;;;;;;;;;;-142.75;100.00;77481.81;5016203;28;19921;-76
2021/09/23 03:50:12;;;;;;;;;;;;;;;-142.75;100.00;77471.97;5000370;28;19913;-75
2021/09/23 03:52:38;;;;;;;;;;;;;;;-142.75;100.00;77468.03;5011499;28;19913;-77
2021/09/23 03:55:04;;;;;;;;;;;;;;;-142.75;100.00;77464.09;5000185;28;19920;-77
2021/09/23 03:57:29;;;;;;;;;;;;;;;-142.75;100.00;77460.13;5011342;28;19913;-78
2021/09/23 03:59:55;;;;;;;;;;;;;;;-142.75;100.00;77456.22;5029024;28;19913;-77
2021/09/23 04:02:20;;;;;;;;;;;;;;;-142.75;100.00;77454.25;5012223;28;19912;-76
2021/09/23 04:04:45;;;;;;;;;;;;;;;-142.75;100.00;77464.09;5023042;28;20390;-78
2021/09/23 04:07:10;;;;;;;;;;;;;;;-142.75;100.00;77458.16;4991870;28;19971;-76
2021/09/23 04:09:35;;;;;;;;;;;;;;;-142.75;100.00;77464.09;5001637;28;19935;-78
2021/09/23 04:12:01;;;;;;;;;;;;;;;-142.75;100.00;77460.13;5028399;28;19952;-77
2021/09/23 04:14:26;;;;;;;;;;;;;;;-142.75;100.00;77464.09;4995921;28;19917;-78
2021/09/23 04:16:51;;;;;;;;;;;;;;;-142.75;100.00;77464.09;4991831;28;19975;-77
2021/09/23 04:19:19;;;;;;;;;;;;;;;-142.75;100.00;77464.09;5012115;28;19924;-76
2021/09/23 04:21:44;;;;;;;;;;;;;;;-142.75;100.00;77456.22;5018710;28;20003;-77
2021/09/23 04:24:10;;;;;;;;;;;;;;;-142.75;100.00;77456.22;5032098;28;20012;-78
2021/09/23 04:26:35;;;;;;;;;;;;;;;-142.75;100.00;77452.25;5027425;28;19939;-77
2021/09/23 04:29:01;;;;;;;;;;;;;;;-142.75;100.00;77456.22;5005778;28;19917;-78
2021/09/23 04:31:26;;;;;;;;;;;;;;;-142.75;100.00;77446.34;5002435;28;19917;-77
2021/09/23 04:33:51;;;;;;;;;;;;;;;-142.75;100.00;77434.53;5034856;28;20418;-77
2021/09/23 04:36:16;;;;;;;;;;;;;;;-142.75;100.00;77414.84;5020079;28;20401;-77
2021/09/23 04:38:42;;;;;;;;;;;;;;;-142.75;100.00;77397.13;4997396;28;19920;-77
2021/09/23 04:41:07;;;;;;;;;;;;;;;-142.75;100.00;77393.19;5028809;28;20433;-77
2021/09/23 04:43:33;;;;;;;;;;;;;;;-142.75;100.00;77391.22;5020027;28;19935;-77
2021/09/23 04:45:58;;;;;;;;;;;;;;;-142.75;100.00;77381.38;5014425;28;19913;-77
2021/09/23 04:48:23;;;;;;;;;;;;;;;-142.75;100.00;77377.44;5019669;28;19952;-77
2021/09/23 04:50:48;;;;;;;;;;;;;;;-142.75;100.00;77373.50;5016746;28;19920;-77
2021/09/23 04:53:13;;;;;;;;;;;;;;;-142.75;100.00;77371.53;5034325;28;19920;-77
2021/09/23 04:55:39;;;;;;;;;;;;;;;-142.75;100.00;77361.69;5033859;28;19913;-78
2021/09/23 04:58:04;;;;;;;;;;;;;;;-142.75;100.00;77343.97;5028608;28;19971;-77
2021/09/23 05:00:29;;;;;;;;;;;;;;;-142.75;100.00;77340.03;5018266;28;20378;-78
2021/09/23 05:02:54;;;;;;;;;;;;;;;-142.75;100.00;77326.25;5034150;28;19938;-78
2021/09/23 05:05:20;;;;;;;;;;;;;;;-142.75;100.00;77316.41;5016052;28;19913;-77
2021/09/23 05:07:45;;;;;;;;;;;;;;;-142.75;100.00;77326.25;5034093;28;19917;-76
2021/09/23 05:10:10;;;;;;;;;;;;;;;-142.75;100.00;77334.13;4998211;28;19913;-77
2021/09/23 05:12:35;;;;;;;;;;;;;;;-142.75;100.00;77332.16;5029037;28;20337;-77
2021/09/23 05:15:00;;;;;;;;;;;;;;;-142.75;100.00;77330.19;5033587;28;19913;-78
2021/09/23 05:17:26;;;;;;;;;;;;;;;-142.75;100.00;77328.22;5023800;28;19940;-77
2021/09/23 05:19:51;;;;;;;;;;;;;;;-142.75;100.00;77324.28;5014302;28;19937;-77
2021/09/23 05:22:17;;;;;;;;;;;;;;;-142.75;100.00;77322.31;5008035;28;19967;-76
2021/09/23 05:24:47;;;;;;;;;;;;;;;-142.75;100.00;77328.22;5025512;28;19960;-77
2021/09/23 05:27:12;;;;;;;;;;;;;;;-142.75;100.00;77334.13;5032810;28;20386;-77
2021/09/23 05:29:40;;;;;;;;;;;;;;;-142.75;100.00;77326.25;5033766;28;19919;-77
2021/09/23 05:32:05;;;;;;;;;;;;;;;-142.75;100.00;77326.25;5015391;28;20011;-78
2021/09/23 05:34:30;;;;;;;;;;;;;;;-142.75;100.00;77338.06;5033348;28;20546;-76
2021/09/23 05:36:55;;;;;;;;;;;;;;;-142.75;100.00;77334.13;5033421;28;19921;-78
2021/09/23 05:39:21;;;;;;;;;;;;;;;-142.75;100.00;77336.09;5003439;28;19928;-77
2021/09/23 05:41:46;;;;;;;;;;;;;;;-142.75;100.00;77320.34;5002239;28;19955;-77
2021/09/23 05:44:11;;;;;;;;;;;;;;;-142.75;100.00;77314.44;5015497;28;20358;-77
2021/09/23 05:46:36;;;;;;;;;;;;;;;-142.75;100.00;77318.38;5013552;28;19961;-78
2021/09/23 05:49:02;;;;;;;;;;;;;;;-142.75;100.00;77312.47;4996041;28;19913;-77
2021/09/23 05:51:28;;;;;;;;;;;;;;;-142.75;100.00;77308.53;5013625;28;19952;-78
2021/09/23 05:53:53;;;;;;;;;;;;;;;-142.75;100.00;77290.81;5013569;28;19975;-78
2021/09/23 05:56:18;;;;;;;;;;;;;;;-142.75;100.00;77282.94;5012496;28;20014;-77
2021/09/23 05:58:43;;;;;;;;;;;;;;;-142.75;100.00;77275.06;5028772;28;20008;-78
2021/09/23 06:01:09;;;;;;;;;;;;;;;-142.75;100.00;77267.19;5006037;28;19952;-80
2021/09/23 06:03:34;;;;;;;;;;;;;;;-142.75;100.00;77251.44;5005246;28;19917;-78
2021/09/23 06:05:59;;;;;;;;;;;;;;;-142.75;100.00;77245.53;5023356;28;19960;-77
2021/09/23 06:08:24;;;;;;;;;;;;;;;-142.75;100.00;77239.63;5025532;28;19918;-77
2021/09/23 06:10:49;;;;;;;;;;;;;;;-142.75;100.00;77231.75;5021747;28;19994;-77
2021/09/23 06:13:14;;;;;;;;;;;;;;;-142.75;100.00;77219.94;5020288;28;19948;-77
2021/09/23 06:15:40;;;;;;;;;;;;;;;-142.75;100.00;77214.03;5003199;28;19948;-77
2021/09/23 06:18:06;;;;;;;;;;;;;;;-142.75;100.00;77186.47;5001726;28;20380;-77
2021/09/23 06:20:31;;;;;;;;;;;;;;;-142.75;100.00;77174.66;5022146;28;19957;-77
2021/09/23 06:22:56;;;;;;;;;;;;;;;-142.75;100.00;77149.06;5007186;28;19985;-77
2021/09/23 06:25:23;;;;;;;;;;;;;;;-142.75;100.00;77129.38;5025397;28;19913;-78
2021/09/23 06:27:48;;;;;;;;;;;;;;;-142.75;100.00;77127.41;5003994;28;20012;-78
2021/09/23 06:30:13;;;;;;;;;;;;;;;-142.75;100.00;77125.44;5004955;28;20020;-77
2021/09/23 06:32:39;;;;;;;;;;;;;;;-142.75;100.00;77113.63;5004354;28;19913;-77
2021/09/23 06:35:04;;;;;;;;;;;;;;;-142.75;100.00;77105.75;5005976;28;19967;-77
2021/09/23 06:37:30;;;;;;;;;;;;;;;-142.75;100.00;77095.91;5005339;28;19959;-78
2021/09/23 06:39:55;;;;;;;;;;;;;;;-142.75;100.00;77088.03;5019376;28;20008;-80
2021/09/23 06:42:20;;;;;;;;;;;;;;;-142.75;100.00;77101.81;5007159;28;19920;-79
2021/09/23 06:44:45;;;;;;;;;;;;;;;-142.75;100.00;77082.13;5020591;28;19913;-76
2021/09/23 06:47:10;;;;;;;;;;;;;;;-142.75;100.00;77101.81;5029882;28;20011;-77
2021/09/23 06:49:36;;;;;;;;;;;;;;;-142.75;100.00;77082.13;5021970;28;20438;-79
2021/09/23 06:52:02;;;;;;;;;;;;;;;-142.75;100.00;77074.25;5018605;28;20383;-79
2021/09/23 06:54:27;;;;;;;;;;;;;;;-142.75;100.00;77084.09;4999795;28;19961;-79
2021/09/23 06:56:52;;;;;;;;;;;;;;;-142.75;100.00;77078.19;5028527;28;19913;-78
2021/09/23 06:59:17;;;;;;;;;;;;;;;-142.75;100.00;77074.25;4999702;28;19913;-79
2021/09/23 07:01:42;;;;;;;;;;;;;;;-142.75;100.00;77054.56;5022967;28;19913;-79
2021/09/23 07:04:08;;;;;;;;;;;;;;;-142.75;100.00;77007.31;5003422;28;20426;-78
2021/09/23 07:06:33;;;;;;;;;;;;;;;-142.75;100.00;76944.31;5034131;28;19913;-80
2021/09/23 07:08:58;;;;;;;;;;;;;;;-142.75;100.00;76889.19;5030337;28;19925;-79
2021/09/23 07:11:23;;;;;;;;;;;;;;;-142.75;100.00;76849.81;5029558;28;20000;-79
2021/09/23 07:13:48;;;;;;;;;;;;;;;-142.75;100.00;76845.88;5025054;28;19913;-78
2021/09/23 07:16:14;;;;;;;;;;;;;;;-142.75;100.00;76810.44;5026426;28;20004;-79
2021/09/23 07:18:39;;;;;;;;;;;;;;;-142.75;100.00;76845.88;5021558;28;19914;-78
2021/09/23 07:21:05;;;;;;;;;;;;;;;-142.75;99.59;76810.44;5025027;28;19919;-78
2021/09/23 07:23:30;;;;;;;;;;;;;;;-142.75;98.38;76796.69;5002430;28;20445;-79
2021/09/23 07:25:55;;;;;;;;;;;;;;;-142.75;98.10;76773.06;5018866;28;19952;-78
2021/09/23 07:28:21;;;;;;;;;;;;;;;-142.75;95.67;76757.31;5021990;28;19972;-79
2021/09/23 07:30:46;;;;;;;;;;;;;;;-142.75;95.46;76715.97;5029035;28;19916;-78
2021/09/23 07:33:11;;;;;;;;;;;;;;;-142.75;93.01;76690.38;5026176;28;20301;-79
2021/09/23 07:35:36;;;;;;;;;;;;;;;-142.75;90.02;76582.09;5012102;28;19917;-78
2021/09/23 07:38:02;;;;;;;;;;;;;;;-142.75;86.61;76489.59;5008816;28;19919;-80
2021/09/23 07:40:27;;;;;;;;;;;;;;;-142.75;82.51;76371.47;5012420;28;19913;-81
2021/09/23 07:42:53;;;;;;;;;;;;;;;-142.75;76.70;76263.22;5021294;28;19921;-78
2021/09/23 07:45:18;;;;;;;;;;;;;;;-142.75;69.62;76278.97;5014181;28;19941;-77
2021/09/23 07:47:44;;;;;;;;;;;;;;;-142.75;68.37;76164.81;5015110;28;20012;-78
2021/09/23 07:50:09;;;;;;;;;;;;;;;-142.75;66.46;76097.88;5014257;28;19913;-76
2021/09/23 07:52:35;;;;;;;;;;;;;;;-142.75;65.21;76038.84;5005395;28;19912;-77
2021/09/23 07:55:00;;;;;;;;;;;;;;;-142.75;63.35;75983.72;5027683;28;20454;-79
2021/09/23 07:57:25;;;;;;;;;;;;;;;-142.75;61.34;75906.97;5013893;28;19983;-78
2021/09/23 07:59:50;;;;;;;;;;;;;;;-142.75;60.26;75871.53;5025758;28;20004;-78
2021/09/23 08:02:15;;;;;;;;;;;;;;;-142.75;58.97;75871.53;5016446;28;20294;-80
2021/09/23 08:04:41;;;;;;;;;;;;;;;-142.75;57.57;75838.09;5009038;28;19913;-79
2021/09/23 08:07:06;;;;;;;;;;;;;;;-142.75;58.79;75908.94;5000396;28;19928;-77
2021/09/23 08:09:31;;;;;;;;;;;;;;;-142.75;58.26;75877.44;5018329;28;19913;-77
2021/09/23 08:11:56;;;;;;;;;;;;;;;-142.75;56.11;75889.25;5025560;28;19999;-78
2021/09/23 08:14:22;;;;;;;;;;;;;;;-142.75;58.75;75987.66;5009524;28;19917;-77
2021/09/23 08:16:48;;;;;;;;;;;;;;;-142.75;59.72;76023.09;5021597;28;20535;-77
2021/09/23 08:19:14;;;;;;;;;;;;;;;-142.75;61.34;76025.06;5001795;28;19913;-77
2021/09/23 08:21:39;;;;;;;;;;;;;;;-142.75;60.88;76038.84;5027369;28;19949;-78
2021/09/23 08:24:04;;;;;;;;;;;;;;;-142.75;59.99;76074.25;5032370;28;19921;-79
2021/09/23 08:26:29;;;;;;;;;;;;;;;-142.75;60.94;76119.53;5015730;28;19975;-78
2021/09/23 08:28:55;;;;;;;;;;;;;;;-142.75;61.96;76188.44;5016348;28;19995;-78
2021/09/23 08:31:21;;;;;;;;;;;;;;;-142.75;62.95;76221.88;5010929;28;19960;-77
2021/09/23 08:33:47;;;;;;;;;;;;;;;-142.75;63.99;76278.97;5008716;28;20345;-78
2021/09/23 08:36:13;;;;;;;;;;;;;;;-142.75;64.47;76308.50;4996205;28;20004;-78
2021/09/23 08:38:38;;;;;;;;;;;;;;;-142.75;65.78;76373.44;5020043;28;20394;-78
2021/09/23 08:41:03;;;;;;;;;;;;;;;-142.75;67.85;76369.50;5026063;28;19919;-78
2021/09/23 08:43:29;;;;;;;;;;;;;;;-142.75;67.36;76412.81;5017808;28;19917;-78
2021/09/23 08:45:55;;;;;;;;;;;;;;;-142.75;68.28;76444.31;5002375;28;19920;-78
2021/09/23 08:48:20;;;;;;;;;;;;;;;-142.75;70.06;76448.25;5021940;28;19940;-77
2021/09/23 08:50:46;;;;;;;;;;;;;;;-142.75;68.55;76483.69;5005826;28;19969;-77
2021/09/23 08:53:11;;;;;;;;;;;;;;;-142.75;67.45;76528.97;5020881;28;19948;-78
2021/09/23 08:55:36;;;;;;;;;;;;;;;-142.75;67.84;76538.78;5026834;28;19929;-78
2021/09/23 08:58:03;;;;;;;;;;;;;;;-142.75;68.73;76564.38;5017870;28;19913;-77
2021/09/23 09:00:29;;;;;;;;;;;;;;;-142.75;68.95;76562.41;4997730;28;19976;-77
2021/09/23 09:03:03;;;;;;;;;;;;;;;-142.75;67.20;76489.59;5026445;28;19913;-78
2021/09/23 09:05:29;;;;;;;;;;;;;;;-142.75;65.33;76446.28;5005499;28;20011;-77
2021/09/23 09:08:01;;;;;;;;;;;;;;;-142.75;64.65;76454.16;5009341;28;19973;-79
2021/09/23 09:10:26;;;;;;;;;;;;;;;-142.75;64.86;76456.13;5020332;28;19959;-78
2021/09/23 09:12:51;;;;;;;;;;;;;;;-142.75;65.26;76481.72;5005489;28;19925;-77
2021/09/23 09:15:18;;;;;;;;;;;;;;;-142.75;65.61;76483.69;5018328;28;20436;-78
2021/09/23 09:17:43;;;;;;;;;;;;;;;-142.75;65.21;76448.25;5008764;28;19909;-80
2021/09/23 09:20:08;;;;;;;;;;;;;;;-142.75;64.46;76369.50;4998976;28;20319;-78
2021/09/23 09:22:35;;;;;;;;;;;;;;;-142.75;61.59;76200.25;5028068;28;19960;-77
2021/09/23 09:25:03;;;;;;;;;;;;;;;-142.75;58.56;76007.34;5023009;28;20360;-77
2021/09/23 09:27:45;;;;;;;;;;;;;;;-142.75;51.78;75818.41;5003026;28;19917;-77
2021/09/23 09:30:12;;;;;;;;;;;;;;;-142.75;49.06;75798.72;5025685;28;19928;-77
2021/09/23 09:32:42;;;;;;;;;;;;;;;-142.75;49.57;75838.09;5008949;28;19917;-78
2021/09/23 09:35:09;;;;;;;;;;;;;;;-142.75;49.29;75796.75;5023736;28;20447;-78
2021/09/23 09:37:36;;;;;;;;;;;;;;;-142.75;48.38;75755.44;5006802;28;19975;-77
2021/09/23 09:40:01;;;;;;;;;;;;;;;-142.75;48.15;75822.34;5022916;28;19913;-78
2021/09/23 09:42:28;;;;;;;;;;;;;;;-142.75;48.90;75971.91;5030010;28;19924;-79
2021/09/23 09:44:57;;;;;;;;;;;;;;;-142.75;51.73;76151.03;5001219;28;19917;-77
2021/09/23 09:47:26;;;;;;;;;;;;;;;-142.75;54.78;76227.78;5006398;28;19921;-78
2021/09/23 09:49:51;;;;;;;;;;;;;;;-142.75;56.69;76294.72;5021977;28;19959;-78
2021/09/23 09:52:27;;;;;;;;;;;;;;;-142.75;57.96;76369.50;5021519;28;19917;-76
2021/09/23 09:54:58;;;;;;;;;;;;;;;-142.75;58.79;76414.78;5031426;28;19913;-77
2021/09/23 09:57:25;;;;;;;;;;;;;;;-142.75;59.58;76408.88;5020765;28;20290;-78
2021/09/23 09:59:50;;;;;;;;;;;;;;;-142.75;59.80;76389.19;5005464;28;19921;-76
2021/09/23 10:02:15;;;;;;;;;;;;;;;-142.75;59.22;76389.19;5008306;28;19913;-77
2021/09/23 10:04:41;;;;;;;;;;;;;;;-142.75;59.59;76420.69;5008756;28;19920;-77
2021/09/23 10:07:08;;;;;;;;;;;;;;;-142.75;59.96;76434.47;5031160;28;20433;-77
2021/09/23 10:09:35;;;;;;;;;;;;;;;-142.75;60.01;76458.09;5012563;28;19919;-75
2021/09/23 10:12:00;;;;;;;;;;;;;;;-142.75;60.81;76456.13;5025591;28;19955;-77
2021/09/23 10:14:26;;;;;;;;;;;;;;;-142.75;61.94;76454.16;5024062;28;19914;-77
2021/09/23 10:16:52;;;;;;;;;;;;;;;-142.75;60.61;76464.00;5025773;28;19916;-78
2021/09/23 10:19:18;;;;;;;;;;;;;;;-142.75;61.02;76436.44;5024808;28;19916;-78
2021/09/23 10:21:43;;;;;;;;;;;;;;;-142.75;61.04;76434.47;5021717;28;19936;-77
2021/09/23 10:24:10;;;;;;;;;;;;;;;-142.75;60.81;76426.59;5012483;28;20016;-77
2021/09/23 10:26:38;;;;;;;;;;;;;;;-142.75;61.21;76438.41;5017872;28;19920;-78
2021/09/23 10:29:03;;;;;;;;;;;;;;;-142.75;61.73;76462.03;5020992;28;19917;-76
2021/09/23 10:31:33;;;;;;;;;;;;;;;-142.75;62.88;76479.75;5028383;28;19920;-77
2021/09/23 10:34:00;;;;;;;;;;;;;;;-142.75;63.20;76444.31;5016497;28;20008;-76
2021/09/23 10:36:27;;;;;;;;;;;;;;;-142.75;60.88;76357.69;5020611;28;20279;-77
2021/09/23 10:38:53;;;;;;;;;;;;;;;-142.75;57.88;76192.38;5013713;28;20015;-77
2021/09/23 10:41:22;;;;;;;;;;;;;;;-142.75;54.38;76058.53;5009668;28;19966;-81
2021/09/23 10:43:48;;;;;;;;;;;;;;;-142.75;51.41;75928.63;5023878;28;19917;-77
2021/09/23 10:46:13;;;;;;;;;;;;;;;-142.75;47.24;75828.25;5025682;28;19928;-77
2021/09/23 10:48:39;;;;;;;;;;;;;;;-142.75;46.46;75794.78;5027706;28;19917;-78
2021/09/23 10:51:05;;;;;;;;;;;;;;;-142.75;46.45;75657.03;5000212;28;19960;-78
2021/09/23 10:53:34;;;;;;;;;;;;;;;-142.75;42.77;75562.56;5001117;28;19960;-76
2021/09/23 10:56:01;;;;;;;;;;;;;;;-142.75;42.60;75546.81;5020520;28;19913;-77
2021/09/23 10:58:26;;;;;;;;;;;;;;;-142.75;41.27;75527.13;5027723;28;19920;-77
2021/09/23 11:00:52;;;;;;;;;;;;;;;-142.75;40.57;75499.59;5011455;28;19913;-78
2021/09/23 11:03:17;;;;;;;;;;;;;;;-142.75;40.45;75487.78;5025558;28;19916;-80
2021/09/23 11:05:43;;;;;;;;;;;;;;;-142.75;40.04;75515.31;5009832;28;19963;-77
2021/09/23 11:08:10;;;;;;;;;;;;;;;-142.75;39.90;75487.78;5029004;28;19921;-77
2021/09/23 11:10:40;;;;;;;;;;;;;;;-142.75;40.57;75452.34;5014698;28;19939;-77
2021/09/23 11:13:05;;;;;;;;;;;;;;;-142.75;39.90;75338.22;5007987;28;19920;-78
2021/09/23 11:15:31;;;;;;;;;;;;;;;-142.75;38.67;75267.38;5029336;28;19913;-77
2021/09/23 11:17:58;;;;;;;;;;;;;;;-142.75;36.66;75200.47;5005831;28;20022;-79
2021/09/23 11:20:25;;;;;;;;;;;;;;;-142.75;36.76;75294.94;5019433;28;19909;-78
2021/09/23 11:22:55;;;;;;;;;;;;;;;-142.75;39.18;75401.19;5005876;28;19920;-78
2021/09/23 11:25:21;;;;;;;;;;;;;;;-142.75;40.13;75452.34;4995253;28;19921;-78
2021/09/23 11:27:47;;;;;;;;;;;;;;;-142.75;40.99;75536.97;5008531;28;19925;-77
2021/09/23 11:30:14;;;;;;;;;;;;;;;-142.75;42.31;75550.75;4994296;28;19913;-76
2021/09/23 11:33:06;;;;;;;;;;;;;;;-142.75;42.83;75609.78;5026105;28;19920;-77
2021/09/23 11:35:32;;;;;;;;;;;;;;;-142.75;43.41;75678.66;5012853;28;19913;-77
2021/09/23 11:37:58;;;;;;;;;;;;;;;-142.75;43.72;75720.00;5022769;28;19917;-78
2021/09/23 11:40:23;;;;;;;;;;;;;;;-142.75;45.41;75798.72;5023916;28;19920;-78
2021/09/23 11:42:48;;;;;;;;;;;;;;;-142.75;47.75;75869.56;5020858;28;19913;-76
2021/09/23 11:45:28;;;;;;;;;;;;;;;-142.75;48.65;75897.13;5002496;28;19913;-78
2021/09/23 11:47:55;;;;;;;;;;;;;;;-142.75;49.66;75928.63;5017340;28;20290;-78
2021/09/23 11:50:28;;;;;;;;;;;;;;;-142.75;50.23;75981.75;5006674;28;19920;-76
2021/09/23 11:53:09;;;;;;;;;;;;;;;-142.75;51.87;76046.72;5012681;28;19913;-78
2021/09/23 11:55:35;;;;;;;;;;;;;;;-142.75;53.54;76115.59;5005069;28;19920;-78
2021/09/23 11:58:05;;;;;;;;;;;;;;;-142.75;54.85;76117.56;5029845;28;19913;-77
2021/09/23 12:00:32;;;;;;;;;;;;;;;-142.75;55.66;76117.56;5030894;28;19940;-78
2021/09/23 12:02:57;;;;;;;;;;;;;;;-142.75;55.26;76129.38;5001038;28;20008;-78
2021/09/23 12:05:27;;;;;;;;;;;;;;;-142.75;56.51;76192.38;5003962;28;20357;-79
2021/09/23 12:07:52;;;;;;;;;;;;;;;-142.75;57.95;76206.13;5006929;28;19917;-77
2021/09/23 12:10:19;;;;;;;;;;;;;;;-142.75;58.86;76253.38;5023797;28;19920;-78
2021/09/23 12:12:53;;;;;;;;;;;;;;;-142.75;60.36;76302.59;5003228;28;19979;-77
2021/09/23 12:15:21;;;;;;;;;;;;;;;-142.75;61.62;76300.63;5014221;28;20008;-77
2021/09/23 12:17:51;;;;;;;;;;;;;;;-142.75;62.22;76290.78;5009712;28;20010;-78
2021/09/23 12:20:17;;;;;;;;;;;;;;;-142.75;62.50;76275.03;5026859;28;20396;-77